sensor_id;sensor_type;location;lat;lon;timestamp;temperature;humidity
31729;DHT22;18309;43.658;1.312;2024-01-11T00:00:14;4.70;46.90
31729;DHT22;18309;43.658;1.312;2024-01-11T00:02:40;4.80;45.20
31729;DHT22;18309;43.658;1.312;2024-01-11T00:05:06;4.80;40.60
31729;DHT22;18309;43.658;1.312;2024-01-11T00:07:32;4.80;45.20
31729;DHT22;18309;43.658;1.312;2024-01-11T00:09:57;4.80;38.20
31729;DHT22;18309;43.658;1.312;2024-01-11T00:12:23;4.70;38.00
31729;DHT22;18309;43.658;1.312;2024-01-11T00:14:49;4.80;34.70
31729;DHT22;18309;43.658;1.312;2024-01-11T00:17:14;4.70;36.10
31729;DHT22;18309;43.658;1.312;2024-01-11T00:19:41;4.70;32.00
31729;DHT22;18309;43.658;1.312;2024-01-11T00:22:07;4.70;33.80
31729;DHT22;18309;43.658;1.312;2024-01-11T00:24:32;4.70;40.60
31729;DHT22;18309;43.658;1.312;2024-01-11T00:26:58;4.70;39.70
31729;DHT22;18309;43.658;1.312;2024-01-11T00:29:24;4.70;34.40
31729;DHT22;18309;43.658;1.312;2024-01-11T00:31:49;4.70;31.50
31729;DHT22;18309;43.658;1.312;2024-01-11T00:34:15;4.70;37.40
31729;DHT22;18309;43.658;1.312;2024-01-11T00:36:40;4.70;36.40
31729;DHT22;18309;43.658;1.312;2024-01-11T00:39:06;4.70;41.00
31729;DHT22;18309;43.658;1.312;2024-01-11T00:41:32;4.70;40.00
31729;DHT22;18309;43.658;1.312;2024-01-11T00:43:57;4.70;45.70
31729;DHT22;18309;43.658;1.312;2024-01-11T00:46:23;4.70;41.70
31729;DHT22;18309;43.658;1.312;2024-01-11T00:48:49;4.70;43.30
31729;DHT22;18309;43.658;1.312;2024-01-11T00:51:15;4.70;40.00
31729;DHT22;18309;43.658;1.312;2024-01-11T00:53:41;4.60;40.10
31729;DHT22;18309;43.658;1.312;2024-01-11T00:56:17;4.60;44.00
31729;DHT22;18309;43.658;1.312;2024-01-11T00:58:43;4.60;47.00
31729;DHT22;18309;43.658;1.312;2024-01-11T01:01:09;4.60;42.50
31729;DHT22;18309;43.658;1.312;2024-01-11T01:03:35;4.60;49.20
31729;DHT22;18309;43.658;1.312;2024-01-11T01:06:01;4.60;48.50
31729;DHT22;18309;43.658;1.312;2024-01-11T01:08:28;4.60;42.00
31729;DHT22;18309;43.658;1.312;2024-01-11T01:10:53;4.60;47.30
31729;DHT22;18309;43.658;1.312;2024-01-11T01:13:19;4.60;44.60
31729;DHT22;18309;43.658;1.312;2024-01-11T01:15:45;4.60;48.00
31729;DHT22;18309;43.658;1.312;2024-01-11T01:18:10;4.60;47.70
31729;DHT22;18309;43.658;1.312;2024-01-11T01:20:36;4.60;41.10
31729;DHT22;18309;43.658;1.312;2024-01-11T01:23:02;4.60;38.20
31729;DHT22;18309;43.658;1.312;2024-01-11T01:25:28;4.60;37.60
31729;DHT22;18309;43.658;1.312;2024-01-11T01:27:55;4.60;39.00
31729;DHT22;18309;43.658;1.312;2024-01-11T01:30:21;4.60;39.20
31729;DHT22;18309;43.658;1.312;2024-01-11T01:32:47;4.50;44.60
31729;DHT22;18309;43.658;1.312;2024-01-11T01:35:12;4.60;52.80
31729;DHT22;18309;43.658;1.312;2024-01-11T01:37:38;4.60;49.60
31729;DHT22;18309;43.658;1.312;2024-01-11T01:40:04;4.60;50.50
31729;DHT22;18309;43.658;1.312;2024-01-11T01:42:31;4.50;52.00
31729;DHT22;18309;43.658;1.312;2024-01-11T01:44:56;4.60;49.60
31729;DHT22;18309;43.658;1.312;2024-01-11T01:47:22;4.60;44.00
31729;DHT22;18309;43.658;1.312;2024-01-11T01:49:49;4.60;42.20
31729;DHT22;18309;43.658;1.312;2024-01-11T01:52:15;4.50;58.50
31729;DHT22;18309;43.658;1.312;2024-01-11T01:54:42;4.60;57.50
31729;DHT22;18309;43.658;1.312;2024-01-11T01:57:09;4.50;59.40
31729;DHT22;18309;43.658;1.312;2024-01-11T01:59:36;4.60;58.80
31729;DHT22;18309;43.658;1.312;2024-01-11T02:02:04;4.60;58.20
31729;DHT22;18309;43.658;1.312;2024-01-11T02:04:31;4.50;55.90
31729;DHT22;18309;43.658;1.312;2024-01-11T02:06:58;4.50;56.30
31729;DHT22;18309;43.658;1.312;2024-01-11T02:09:24;4.50;61.60
31729;DHT22;18309;43.658;1.312;2024-01-11T02:11:52;4.50;58.20
31729;DHT22;18309;43.658;1.312;2024-01-11T02:14:18;4.50;54.30
31729;DHT22;18309;43.658;1.312;2024-01-11T02:16:45;4.40;53.90
31729;DHT22;18309;43.658;1.312;2024-01-11T02:19:13;4.50;53.20
31729;DHT22;18309;43.658;1.312;2024-01-11T02:21:42;4.50;55.30
31729;DHT22;18309;43.658;1.312;2024-01-11T02:24:08;4.50;54.80
31729;DHT22;18309;43.658;1.312;2024-01-11T02:26:35;4.40;53.30
31729;DHT22;18309;43.658;1.312;2024-01-11T02:29:00;4.40;54.60
31729;DHT22;18309;43.658;1.312;2024-01-11T02:31:26;4.50;50.30
31729;DHT22;18309;43.658;1.312;2024-01-11T02:33:52;4.50;53.40
31729;DHT22;18309;43.658;1.312;2024-01-11T02:36:20;4.50;53.30
31729;DHT22;18309;43.658;1.312;2024-01-11T02:38:46;4.50;52.70
31729;DHT22;18309;43.658;1.312;2024-01-11T02:41:12;4.50;50.90
31729;DHT22;18309;43.658;1.312;2024-01-11T02:43:39;4.50;51.50
31729;DHT22;18309;43.658;1.312;2024-01-11T02:46:05;4.50;51.70
31729;DHT22;18309;43.658;1.312;2024-01-11T02:48:31;4.50;52.00
31729;DHT22;18309;43.658;1.312;2024-01-11T02:50:59;4.50;53.00
31729;DHT22;18309;43.658;1.312;2024-01-11T02:53:25;4.50;52.70
31729;DHT22;18309;43.658;1.312;2024-01-11T02:55:51;4.50;49.30
31729;DHT22;18309;43.658;1.312;2024-01-11T02:58:16;4.50;56.20
31729;DHT22;18309;43.658;1.312;2024-01-11T03:00:42;4.50;54.60
31729;DHT22;18309;43.658;1.312;2024-01-11T03:03:08;4.40;53.20
31729;DHT22;18309;43.658;1.312;2024-01-11T03:05:33;4.50;50.30
31729;DHT22;18309;43.658;1.312;2024-01-11T03:07:59;4.50;49.50
31729;DHT22;18309;43.658;1.312;2024-01-11T03:10:25;4.50;51.50
31729;DHT22;18309;43.658;1.312;2024-01-11T03:12:50;4.50;52.20
31729;DHT22;18309;43.658;1.312;2024-01-11T03:15:16;4.50;51.90
31729;DHT22;18309;43.658;1.312;2024-01-11T03:17:42;4.50;50.60
31729;DHT22;18309;43.658;1.312;2024-01-11T03:20:08;4.50;45.40
31729;DHT22;18309;43.658;1.312;2024-01-11T03:22:34;4.50;48.50
31729;DHT22;18309;43.658;1.312;2024-01-11T03:24:59;4.50;54.90
31729;DHT22;18309;43.658;1.312;2024-01-11T03:27:25;4.50;55.20
31729;DHT22;18309;43.658;1.312;2024-01-11T03:29:51;4.60;51.20
31729;DHT22;18309;43.658;1.312;2024-01-11T03:32:16;4.50;49.40
31729;DHT22;18309;43.658;1.312;2024-01-11T03:34:42;4.50;56.80
31729;DHT22;18309;43.658;1.312;2024-01-11T03:37:08;4.50;48.30
31729;DHT22;18309;43.658;1.312;2024-01-11T03:39:34;4.50;47.10
31729;DHT22;18309;43.658;1.312;2024-01-11T03:42:00;4.50;50.10
31729;DHT22;18309;43.658;1.312;2024-01-11T03:44:26;4.50;48.00
31729;DHT22;18309;43.658;1.312;2024-01-11T03:46:52;4.50;47.30
31729;DHT22;18309;43.658;1.312;2024-01-11T03:49:17;4.40;47.90
31729;DHT22;18309;43.658;1.312;2024-01-11T03:51:43;4.50;49.70
31729;DHT22;18309;43.658;1.312;2024-01-11T03:54:09;4.40;56.70
31729;DHT22;18309;43.658;1.312;2024-01-11T03:56:38;4.40;63.60
31729;DHT22;18309;43.658;1.312;2024-01-11T03:59:07;4.40;59.30
31729;DHT22;18309;43.658;1.312;2024-01-11T04:01:33;4.40;59.60
31729;DHT22;18309;43.658;1.312;2024-01-11T04:03:58;4.40;58.20
31729;DHT22;18309;43.658;1.312;2024-01-11T04:06:24;4.40;57.40
31729;DHT22;18309;43.658;1.312;2024-01-11T04:08:50;4.40;58.40
31729;DHT22;18309;43.658;1.312;2024-01-11T04:11:17;4.40;59.40
31729;DHT22;18309;43.658;1.312;2024-01-11T04:13:43;4.40;60.20
31729;DHT22;18309;43.658;1.312;2024-01-11T04:16:09;4.50;57.50
31729;DHT22;18309;43.658;1.312;2024-01-11T04:18:34;4.50;53.70
31729;DHT22;18309;43.658;1.312;2024-01-11T04:21:00;4.50;61.50
31729;DHT22;18309;43.658;1.312;2024-01-11T04:23:26;4.50;62.70
31729;DHT22;18309;43.658;1.312;2024-01-11T04:25:51;4.40;59.00
31729;DHT22;18309;43.658;1.312;2024-01-11T04:28:17;4.40;61.90
31729;DHT22;18309;43.658;1.312;2024-01-11T04:30:43;4.40;74.60
31729;DHT22;18309;43.658;1.312;2024-01-11T04:33:09;4.40;71.90
31729;DHT22;18309;43.658;1.312;2024-01-11T04:35:35;4.40;69.70
31729;DHT22;18309;43.658;1.312;2024-01-11T04:38:01;4.40;71.10
31729;DHT22;18309;43.658;1.312;2024-01-11T04:40:27;4.40;69.90
31729;DHT22;18309;43.658;1.312;2024-01-11T04:42:53;4.50;63.70
31729;DHT22;18309;43.658;1.312;2024-01-11T04:45:18;4.40;64.00
31729;DHT22;18309;43.658;1.312;2024-01-11T04:47:44;4.40;66.10
31729;DHT22;18309;43.658;1.312;2024-01-11T04:50:10;4.40;70.00
31729;DHT22;18309;43.658;1.312;2024-01-11T04:52:35;4.50;68.90
31729;DHT22;18309;43.658;1.312;2024-01-11T04:55:01;4.50;68.50
31729;DHT22;18309;43.658;1.312;2024-01-11T04:57:27;4.50;67.60
31729;DHT22;18309;43.658;1.312;2024-01-11T04:59:53;4.50;74.90
31729;DHT22;18309;43.658;1.312;2024-01-11T05:02:22;4.50;72.80
31729;DHT22;18309;43.658;1.312;2024-01-11T05:04:48;4.50;69.90
31729;DHT22;18309;43.658;1.312;2024-01-11T05:07:14;4.50;73.80
31729;DHT22;18309;43.658;1.312;2024-01-11T05:09:39;4.50;68.80
31729;DHT22;18309;43.658;1.312;2024-01-11T05:12:05;4.50;62.40
31729;DHT22;18309;43.658;1.312;2024-01-11T05:14:31;4.40;61.60
31729;DHT22;18309;43.658;1.312;2024-01-11T05:16:57;4.40;73.00
31729;DHT22;18309;43.658;1.312;2024-01-11T05:19:22;4.40;69.30
31729;DHT22;18309;43.658;1.312;2024-01-11T05:21:48;4.50;67.50
31729;DHT22;18309;43.658;1.312;2024-01-11T05:24:14;4.50;71.60
31729;DHT22;18309;43.658;1.312;2024-01-11T05:26:39;4.40;70.90
31729;DHT22;18309;43.658;1.312;2024-01-11T05:29:05;4.40;73.10
31729;DHT22;18309;43.658;1.312;2024-01-11T05:31:31;4.30;74.40
31729;DHT22;18309;43.658;1.312;2024-01-11T05:33:56;4.30;70.50
31729;DHT22;18309;43.658;1.312;2024-01-11T05:36:23;4.30;72.00
31729;DHT22;18309;43.658;1.312;2024-01-11T05:38:48;4.30;74.20
31729;DHT22;18309;43.658;1.312;2024-01-11T05:41:14;4.30;75.10
31729;DHT22;18309;43.658;1.312;2024-01-11T05:43:40;4.30;78.70
31729;DHT22;18309;43.658;1.312;2024-01-11T05:46:07;4.40;75.00
31729;DHT22;18309;43.658;1.312;2024-01-11T05:48:32;4.40;73.30
31729;DHT22;18309;43.658;1.312;2024-01-11T05:50:58;4.40;72.60
31729;DHT22;18309;43.658;1.312;2024-01-11T05:53:25;4.40;74.60
31729;DHT22;18309;43.658;1.312;2024-01-11T05:55:53;4.40;71.30
31729;DHT22;18309;43.658;1.312;2024-01-11T05:58:18;4.40;72.80
31729;DHT22;18309;43.658;1.312;2024-01-11T06:00:45;4.40;75.10
31729;DHT22;18309;43.658;1.312;2024-01-11T06:03:14;4.40;74.20
31729;DHT22;18309;43.658;1.312;2024-01-11T06:05:40;4.40;77.10
31729;DHT22;18309;43.658;1.312;2024-01-11T06:08:05;4.40;76.90
31729;DHT22;18309;43.658;1.312;2024-01-11T06:10:31;4.40;80.20
31729;DHT22;18309;43.658;1.312;2024-01-11T06:12:57;4.40;77.80
31729;DHT22;18309;43.658;1.312;2024-01-11T06:15:22;4.40;80.90
31729;DHT22;18309;43.658;1.312;2024-01-11T06:17:48;4.50;77.60
31729;DHT22;18309;43.658;1.312;2024-01-11T06:20:14;4.40;78.90
31729;DHT22;18309;43.658;1.312;2024-01-11T06:22:39;4.40;80.20
31729;DHT22;18309;43.658;1.312;2024-01-11T06:25:05;4.40;81.00
31729;DHT22;18309;43.658;1.312;2024-01-11T06:27:31;4.40;78.40
31729;DHT22;18309;43.658;1.312;2024-01-11T06:29:57;4.50;79.90
31729;DHT22;18309;43.658;1.312;2024-01-11T06:32:22;4.50;79.50
31729;DHT22;18309;43.658;1.312;2024-01-11T06:34:48;4.40;77.60
31729;DHT22;18309;43.658;1.312;2024-01-11T06:37:13;4.40;81.40
31729;DHT22;18309;43.658;1.312;2024-01-11T06:39:39;4.40;76.80
31729;DHT22;18309;43.658;1.312;2024-01-11T06:42:05;4.50;80.00
31729;DHT22;18309;43.658;1.312;2024-01-11T06:44:30;4.50;75.80
31729;DHT22;18309;43.658;1.312;2024-01-11T06:46:56;4.50;74.40
31729;DHT22;18309;43.658;1.312;2024-01-11T06:49:22;4.40;78.10
31729;DHT22;18309;43.658;1.312;2024-01-11T06:51:48;4.50;80.50
31729;DHT22;18309;43.658;1.312;2024-01-11T06:54:13;4.40;81.30
31729;DHT22;18309;43.658;1.312;2024-01-11T06:56:39;4.40;73.80
31729;DHT22;18309;43.658;1.312;2024-01-11T06:59:05;4.40;75.30
31729;DHT22;18309;43.658;1.312;2024-01-11T07:01:32;4.40;78.40
31729;DHT22;18309;43.658;1.312;2024-01-11T07:03:58;4.40;79.70
31729;DHT22;18309;43.658;1.312;2024-01-11T07:06:24;4.40;80.30
31729;DHT22;18309;43.658;1.312;2024-01-11T07:08:50;4.40;79.30
31729;DHT22;18309;43.658;1.312;2024-01-11T07:11:15;4.40;84.20
31729;DHT22;18309;43.658;1.312;2024-01-11T07:13:41;4.40;90.10
31729;DHT22;18309;43.658;1.312;2024-01-11T07:16:08;4.40;83.80
31729;DHT22;18309;43.658;1.312;2024-01-11T07:18:34;4.40;84.00
31729;DHT22;18309;43.658;1.312;2024-01-11T07:21:00;4.40;77.90
31729;DHT22;18309;43.658;1.312;2024-01-11T07:23:27;4.40;85.60
31729;DHT22;18309;43.658;1.312;2024-01-11T07:25:52;4.40;86.70
31729;DHT22;18309;43.658;1.312;2024-01-11T07:28:18;4.40;85.90
31729;DHT22;18309;43.658;1.312;2024-01-11T07:30:45;4.40;80.10
31729;DHT22;18309;43.658;1.312;2024-01-11T07:33:11;4.30;77.80
31729;DHT22;18309;43.658;1.312;2024-01-11T07:35:37;4.40;78.40
31729;DHT22;18309;43.658;1.312;2024-01-11T07:38:03;4.40;78.90
31729;DHT22;18309;43.658;1.312;2024-01-11T07:40:29;4.40;76.00
31729;DHT22;18309;43.658;1.312;2024-01-11T07:42:55;4.40;78.80
31729;DHT22;18309;43.658;1.312;2024-01-11T07:45:21;4.40;78.50
31729;DHT22;18309;43.658;1.312;2024-01-11T07:47:46;4.40;79.40
31729;DHT22;18309;43.658;1.312;2024-01-11T07:50:12;4.30;80.40
31729;DHT22;18309;43.658;1.312;2024-01-11T07:52:39;4.20;80.00
31729;DHT22;18309;43.658;1.312;2024-01-11T07:55:09;4.20;81.00
31729;DHT22;18309;43.658;1.312;2024-01-11T07:57:39;4.20;81.20
31729;DHT22;18309;43.658;1.312;2024-01-11T08:00:06;4.20;82.20
31729;DHT22;18309;43.658;1.312;2024-01-11T08:02:35;4.20;82.40
31729;DHT22;18309;43.658;1.312;2024-01-11T08:05:01;4.30;84.50
31729;DHT22;18309;43.658;1.312;2024-01-11T08:07:27;4.30;84.30
31729;DHT22;18309;43.658;1.312;2024-01-11T08:09:53;4.30;86.30
31729;DHT22;18309;43.658;1.312;2024-01-11T08:12:19;4.40;84.70
31729;DHT22;18309;43.658;1.312;2024-01-11T08:14:44;4.30;85.50
31729;DHT22;18309;43.658;1.312;2024-01-11T08:17:12;4.10;86.20
31729;DHT22;18309;43.658;1.312;2024-01-11T08:19:39;4.70;80.90
31729;DHT22;18309;43.658;1.312;2024-01-11T08:22:06;5.50;78.50
31729;DHT22;18309;43.658;1.312;2024-01-11T08:24:32;5.40;89.80
31729;DHT22;18309;43.658;1.312;2024-01-11T08:26:58;5.10;91.90
31729;DHT22;18309;43.658;1.312;2024-01-11T08:29:23;4.80;93.00
31729;DHT22;18309;43.658;1.312;2024-01-11T08:31:50;4.60;95.00
31729;DHT22;18309;43.658;1.312;2024-01-11T08:34:15;4.50;94.90
31729;DHT22;18309;43.658;1.312;2024-01-11T08:36:42;4.40;95.50
31729;DHT22;18309;43.658;1.312;2024-01-11T08:39:07;4.40;98.30
31729;DHT22;18309;43.658;1.312;2024-01-11T08:41:36;4.40;97.30
31729;DHT22;18309;43.658;1.312;2024-01-11T08:44:03;4.30;97.40
31729;DHT22;18309;43.658;1.312;2024-01-11T08:46:30;4.20;99.00
31729;DHT22;18309;43.658;1.312;2024-01-11T08:48:58;4.20;99.90
31729;DHT22;18309;43.658;1.312;2024-01-11T08:51:24;4.20;99.90
31729;DHT22;18309;43.658;1.312;2024-01-11T08:53:50;4.10;99.90
31729;DHT22;18309;43.658;1.312;2024-01-11T08:56:16;4.10;99.90
31729;DHT22;18309;43.658;1.312;2024-01-11T08:58:42;4.10;99.90
31729;DHT22;18309;43.658;1.312;2024-01-11T09:01:08;4.00;99.90
31729;DHT22;18309;43.658;1.312;2024-01-11T09:03:37;4.10;99.90
31729;DHT22;18309;43.658;1.312;2024-01-11T09:06:03;4.00;99.90
31729;DHT22;18309;43.658;1.312;2024-01-11T09:08:29;4.00;99.90
31729;DHT22;18309;43.658;1.312;2024-01-11T09:10:56;4.10;99.90
31729;DHT22;18309;43.658;1.312;2024-01-11T09:13:23;4.10;99.90
31729;DHT22;18309;43.658;1.312;2024-01-11T09:15:49;4.10;99.90
31729;DHT22;18309;43.658;1.312;2024-01-11T09:18:15;4.10;99.90
31729;DHT22;18309;43.658;1.312;2024-01-11T09:20:41;4.10;99.90
31729;DHT22;18309;43.658;1.312;2024-01-11T09:23:07;4.10;99.90
31729;DHT22;18309;43.658;1.312;2024-01-11T09:25:33;4.00;99.90
31729;DHT22;18309;43.658;1.312;2024-01-11T09:27:59;4.10;99.90
31729;DHT22;18309;43.658;1.312;2024-01-11T09:30:25;4.10;99.90
31729;DHT22;18309;43.658;1.312;2024-01-11T09:32:51;4.10;99.90
31729;DHT22;18309;43.658;1.312;2024-01-11T09:35:17;4.10;99.90
31729;DHT22;18309;43.658;1.312;2024-01-11T09:37:43;4.20;99.90
31729;DHT22;18309;43.658;1.312;2024-01-11T09:40:11;4.10;99.90
31729;DHT22;18309;43.658;1.312;2024-01-11T09:42:38;4.10;99.90
31729;DHT22;18309;43.658;1.312;2024-01-11T09:45:14;4.10;99.90
31729;DHT22;18309;43.658;1.312;2024-01-11T09:47:41;4.10;99.90
31729;DHT22;18309;43.658;1.312;2024-01-11T09:50:08;4.20;99.90
31729;DHT22;18309;43.658;1.312;2024-01-11T09:52:33;4.20;99.90
31729;DHT22;18309;43.658;1.312;2024-01-11T09:55:02;4.20;99.90
31729;DHT22;18309;43.658;1.312;2024-01-11T09:57:32;4.10;99.90
31729;DHT22;18309;43.658;1.312;2024-01-11T10:00:04;4.00;99.90
31729;DHT22;18309;43.658;1.312;2024-01-11T10:02:33;4.00;99.90
31729;DHT22;18309;43.658;1.312;2024-01-11T10:04:59;4.00;99.90
31729;DHT22;18309;43.658;1.312;2024-01-11T10:07:25;4.00;99.90
31729;DHT22;18309;43.658;1.312;2024-01-11T10:09:51;4.10;99.90
31729;DHT22;18309;43.658;1.312;2024-01-11T10:12:23;4.10;99.90
31729;DHT22;18309;43.658;1.312;2024-01-11T10:14:50;4.10;99.90
31729;DHT22;18309;43.658;1.312;2024-01-11T10:17:18;4.00;99.90
31729;DHT22;18309;43.658;1.312;2024-01-11T10:19:43;4.00;99.90
31729;DHT22;18309;43.658;1.312;2024-01-11T10:22:09;4.10;99.90
31729;DHT22;18309;43.658;1.312;2024-01-11T10:24:39;4.10;99.90
31729;DHT22;18309;43.658;1.312;2024-01-11T10:27:05;4.10;99.90
31729;DHT22;18309;43.658;1.312;2024-01-11T10:29:34;4.20;99.90
31729;DHT22;18309;43.658;1.312;2024-01-11T10:32:03;4.40;99.90
31729;DHT22;18309;43.658;1.312;2024-01-11T10:34:29;4.40;99.90
31729;DHT22;18309;43.658;1.312;2024-01-11T10:36:54;4.40;99.90
31729;DHT22;18309;43.658;1.312;2024-01-11T10:39:25;4.50;99.90
31729;DHT22;18309;43.658;1.312;2024-01-11T10:42:01;4.60;99.90
31729;DHT22;18309;43.658;1.312;2024-01-11T10:44:33;4.70;99.90
31729;DHT22;18309;43.658;1.312;2024-01-11T10:46:59;4.70;99.90
31729;DHT22;18309;43.658;1.312;2024-01-11T10:49:27;4.70;99.90
31729;DHT22;18309;43.658;1.312;2024-01-11T10:52:05;4.80;99.90
31729;DHT22;18309;43.658;1.312;2024-01-11T10:54:34;4.80;99.90
31729;DHT22;18309;43.658;1.312;2024-01-11T10:57:00;5.00;99.90
31729;DHT22;18309;43.658;1.312;2024-01-11T10:59:29;5.20;99.90
31729;DHT22;18309;43.658;1.312;2024-01-11T11:01:57;5.20;99.90
31729;DHT22;18309;43.658;1.312;2024-01-11T11:04:25;5.20;99.90
31729;DHT22;18309;43.658;1.312;2024-01-11T11:06:57;5.10;99.90
31729;DHT22;18309;43.658;1.312;2024-01-11T11:09:25;5.10;99.90
31729;DHT22;18309;43.658;1.312;2024-01-11T11:11:58;5.10;99.90
31729;DHT22;18309;43.658;1.312;2024-01-11T11:14:25;5.20;99.90
31729;DHT22;18309;43.658;1.312;2024-01-11T11:16:51;5.20;99.90
31729;DHT22;18309;43.658;1.312;2024-01-11T11:19:22;5.30;99.90
31729;DHT22;18309;43.658;1.312;2024-01-11T11:21:48;5.40;99.90
31729;DHT22;18309;43.658;1.312;2024-01-11T11:24:16;5.30;99.90
31729;DHT22;18309;43.658;1.312;2024-01-11T11:26:42;5.30;99.90
31729;DHT22;18309;43.658;1.312;2024-01-11T11:29:08;5.50;99.90
31729;DHT22;18309;43.658;1.312;2024-01-11T11:31:45;5.60;99.90
31729;DHT22;18309;43.658;1.312;2024-01-11T11:34:19;5.70;99.90
31729;DHT22;18309;43.658;1.312;2024-01-11T11:36:50;5.60;99.90
31729;DHT22;18309;43.658;1.312;2024-01-11T11:39:20;5.70;99.90
31729;DHT22;18309;43.658;1.312;2024-01-11T11:41:47;5.60;99.90
31729;DHT22;18309;43.658;1.312;2024-01-11T11:44:16;5.70;99.90
31729;DHT22;18309;43.658;1.312;2024-01-11T11:46:41;5.70;99.90
31729;DHT22;18309;43.658;1.312;2024-01-11T11:49:09;5.70;99.90
31729;DHT22;18309;43.658;1.312;2024-01-11T11:51:39;5.70;99.90
31729;DHT22;18309;43.658;1.312;2024-01-11T11:54:06;5.60;99.90
31729;DHT22;18309;43.658;1.312;2024-01-11T11:56:35;5.60;99.90
31729;DHT22;18309;43.658;1.312;2024-01-11T11:59:03;5.80;99.90
31729;DHT22;18309;43.658;1.312;2024-01-11T12:01:29;5.90;99.90
31729;DHT22;18309;43.658;1.312;2024-01-11T12:03:57;6.00;99.90
31729;DHT22;18309;43.658;1.312;2024-01-11T12:06:22;5.90;99.90
31729;DHT22;18309;43.658;1.312;2024-01-11T12:08:52;5.90;99.90
31729;DHT22;18309;43.658;1.312;2024-01-11T12:11:19;6.00;99.90
31729;DHT22;18309;43.658;1.312;2024-01-11T12:13:46;6.00;99.90
31729;DHT22;18309;43.658;1.312;2024-01-11T12:16:12;6.10;99.90
31729;DHT22;18309;43.658;1.312;2024-01-11T12:18:38;6.10;99.90
31729;DHT22;18309;43.658;1.312;2024-01-11T12:21:04;6.10;99.90
31729;DHT22;18309;43.658;1.312;2024-01-11T12:23:31;6.20;99.90
31729;DHT22;18309;43.658;1.312;2024-01-11T12:25:58;6.20;99.90
31729;DHT22;18309;43.658;1.312;2024-01-11T12:28:26;6.20;99.90
31729;DHT22;18309;43.658;1.312;2024-01-11T12:30:51;6.20;99.90
31729;DHT22;18309;43.658;1.312;2024-01-11T12:33:18;6.40;99.90
31729;DHT22;18309;43.658;1.312;2024-01-11T12:35:44;6.20;99.90
31729;DHT22;18309;43.658;1.312;2024-01-11T12:38:10;6.30;99.90
31729;DHT22;18309;43.658;1.312;2024-01-11T12:40:37;6.40;99.90
31729;DHT22;18309;43.658;1.312;2024-01-11T12:43:04;6.60;99.90
31729;DHT22;18309;43.658;1.312;2024-01-11T12:45:31;6.70;99.90
31729;DHT22;18309;43.658;1.312;2024-01-11T12:47:58;6.60;99.90
31729;DHT22;18309;43.658;1.312;2024-01-11T12:50:26;6.60;99.90
31729;DHT22;18309;43.658;1.312;2024-01-11T12:53:14;6.70;99.90
31729;DHT22;18309;43.658;1.312;2024-01-11T12:55:47;6.70;99.90
31729;DHT22;18309;43.658;1.312;2024-01-11T12:58:19;6.70;99.90
31729;DHT22;18309;43.658;1.312;2024-01-11T13:00:45;6.90;99.90
31729;DHT22;18309;43.658;1.312;2024-01-11T13:03:11;7.20;99.90
31729;DHT22;18309;43.658;1.312;2024-01-11T13:05:37;7.40;99.90
31729;DHT22;18309;43.658;1.312;2024-01-11T13:08:07;7.40;99.90
31729;DHT22;18309;43.658;1.312;2024-01-11T13:10:34;7.40;99.90
31729;DHT22;18309;43.658;1.312;2024-01-11T13:13:01;7.30;99.90
31729;DHT22;18309;43.658;1.312;2024-01-11T13:15:27;7.20;99.90
31729;DHT22;18309;43.658;1.312;2024-01-11T13:17:55;7.20;99.90
31729;DHT22;18309;43.658;1.312;2024-01-11T13:20:21;7.20;99.90
31729;DHT22;18309;43.658;1.312;2024-01-11T13:22:47;7.20;99.90
31729;DHT22;18309;43.658;1.312;2024-01-11T13:25:12;7.20;99.90
31729;DHT22;18309;43.658;1.312;2024-01-11T13:27:39;7.20;99.90
31729;DHT22;18309;43.658;1.312;2024-01-11T13:30:09;7.20;99.90
31729;DHT22;18309;43.658;1.312;2024-01-11T13:32:35;7.10;99.90
31729;DHT22;18309;43.658;1.312;2024-01-11T13:35:00;7.00;99.90
31729;DHT22;18309;43.658;1.312;2024-01-11T13:37:27;7.00;99.90
31729;DHT22;18309;43.658;1.312;2024-01-11T13:39:53;7.00;99.90
31729;DHT22;18309;43.658;1.312;2024-01-11T13:42:18;7.10;99.90
31729;DHT22;18309;43.658;1.312;2024-01-11T13:44:44;7.00;99.90
31729;DHT22;18309;43.658;1.312;2024-01-11T13:47:10;7.00;99.90
31729;DHT22;18309;43.658;1.312;2024-01-11T13:49:35;7.00;99.90
31729;DHT22;18309;43.658;1.312;2024-01-11T13:52:03;7.00;99.90
31729;DHT22;18309;43.658;1.312;2024-01-11T13:54:30;6.90;99.90
31729;DHT22;18309;43.658;1.312;2024-01-11T13:56:57;7.00;99.90
31729;DHT22;18309;43.658;1.312;2024-01-11T13:59:22;6.90;99.90
31729;DHT22;18309;43.658;1.312;2024-01-11T14:01:49;6.90;99.90
31729;DHT22;18309;43.658;1.312;2024-01-11T14:04:14;6.90;99.90
31729;DHT22;18309;43.658;1.312;2024-01-11T14:06:41;6.90;99.90
31729;DHT22;18309;43.658;1.312;2024-01-11T14:09:06;6.90;99.90
31729;DHT22;18309;43.658;1.312;2024-01-11T14:11:34;6.90;99.90
31729;DHT22;18309;43.658;1.312;2024-01-11T14:14:03;6.90;99.90
31729;DHT22;18309;43.658;1.312;2024-01-11T14:16:29;6.90;99.90
31729;DHT22;18309;43.658;1.312;2024-01-11T14:18:55;6.90;99.90
31729;DHT22;18309;43.658;1.312;2024-01-11T14:21:20;6.90;99.90
31729;DHT22;18309;43.658;1.312;2024-01-11T14:23:46;6.80;99.90
31729;DHT22;18309;43.658;1.312;2024-01-11T14:26:12;6.70;99.90
31729;DHT22;18309;43.658;1.312;2024-01-11T14:28:38;6.80;99.90
31729;DHT22;18309;43.658;1.312;2024-01-11T14:31:07;6.80;99.90
31729;DHT22;18309;43.658;1.312;2024-01-11T14:33:33;6.80;99.90
31729;DHT22;18309;43.658;1.312;2024-01-11T14:35:59;6.80;99.90
31729;DHT22;18309;43.658;1.312;2024-01-11T14:38:26;6.90;99.90
31729;DHT22;18309;43.658;1.312;2024-01-11T14:40:52;7.00;99.90
31729;DHT22;18309;43.658;1.312;2024-01-11T14:43:18;6.90;99.90
31729;DHT22;18309;43.658;1.312;2024-01-11T14:45:43;6.90;99.90
31729;DHT22;18309;43.658;1.312;2024-01-11T14:48:10;7.00;99.90
31729;DHT22;18309;43.658;1.312;2024-01-11T14:50:37;6.80;99.90
31729;DHT22;18309;43.658;1.312;2024-01-11T14:53:03;6.80;99.90
31729;DHT22;18309;43.658;1.312;2024-01-11T14:55:29;6.90;99.90
31729;DHT22;18309;43.658;1.312;2024-01-11T14:57:55;7.00;99.90
31729;DHT22;18309;43.658;1.312;2024-01-11T15:00:21;7.00;99.90
31729;DHT22;18309;43.658;1.312;2024-01-11T15:02:47;7.10;99.90
31729;DHT22;18309;43.658;1.312;2024-01-11T15:05:14;7.20;99.90
31729;DHT22;18309;43.658;1.312;2024-01-11T15:07:40;7.10;99.90
31729;DHT22;18309;43.658;1.312;2024-01-11T15:10:06;7.00;99.90
31729;DHT22;18309;43.658;1.312;2024-01-11T15:12:32;7.00;99.90
31729;DHT22;18309;43.658;1.312;2024-01-11T15:14:57;7.00;99.90
31729;DHT22;18309;43.658;1.312;2024-01-11T15:17:23;7.00;99.90
31729;DHT22;18309;43.658;1.312;2024-01-11T15:19:49;6.90;99.90
31729;DHT22;18309;43.658;1.312;2024-01-11T15:22:15;7.00;99.90
31729;DHT22;18309;43.658;1.312;2024-01-11T15:24:41;6.90;99.90
31729;DHT22;18309;43.658;1.312;2024-01-11T15:27:08;6.90;99.90
31729;DHT22;18309;43.658;1.312;2024-01-11T15:29:33;6.90;99.90
31729;DHT22;18309;43.658;1.312;2024-01-11T15:31:59;6.90;99.90
31729;DHT22;18309;43.658;1.312;2024-01-11T15:34:25;6.90;99.90
31729;DHT22;18309;43.658;1.312;2024-01-11T15:36:51;6.90;99.90
31729;DHT22;18309;43.658;1.312;2024-01-11T15:39:17;6.80;99.90